createdAt,value
2022-08-21T04:30:28.789Z,1.48
2022-08-21T04:32:56.918Z,1.50
2022-08-21T04:35:25.671Z,1.30
2022-08-21T04:37:52.467Z,1.55
2022-08-21T04:40:21.121Z,1.48
2022-08-21T04:42:50.986Z,1.38
2022-08-21T04:45:38.846Z,1.73
2022-08-21T04:48:11.997Z,1.45
2022-08-21T04:51:07.207Z,1.42
2022-08-21T04:53:54.934Z,1.40
2022-08-21T04:56:22.797Z,1.73
2022-08-21T04:58:51.698Z,1.35
2022-08-21T05:01:22.860Z,1.33
2022-08-21T05:03:51.740Z,1.65
2022-08-21T05:06:19.070Z,1.38
2022-08-21T05:08:47.787Z,1.38
2022-08-21T05:11:14.699Z,1.30
2022-08-21T05:13:44.162Z,1.08
2022-08-21T05:16:10.915Z,1.27
2022-08-21T05:18:37.780Z,1.58
2022-08-21T05:21:05.171Z,1.42
2022-08-21T05:23:32.464Z,1.77
2022-08-21T05:25:59.338Z,1.70
2022-08-21T05:28:27.156Z,1.60
2022-08-21T05:30:54.543Z,1.35
2022-08-21T05:33:21.343Z,1.20
2022-08-21T05:35:52.285Z,1.58
2022-08-21T05:38:19.777Z,1.13
2022-08-21T05:40:47.210Z,1.40
2022-08-21T05:43:14.893Z,1.25
2022-08-21T05:45:44.218Z,1.80
2022-08-21T05:48:13.896Z,1.27
2022-08-21T05:50:41.088Z,1.40
2022-08-21T05:53:09.156Z,1.30
2022-08-21T05:55:40.302Z,1.33
2022-08-21T05:58:09.613Z,1.70
2022-08-21T06:00:36.496Z,1.50
2022-08-21T06:03:03.313Z,1.20
2022-08-21T06:05:37.179Z,1.70
2022-08-21T06:08:05.283Z,2.38
2022-08-21T06:10:32.322Z,2.00
2022-08-21T06:12:59.213Z,1.35
2022-08-21T06:15:26.448Z,2.00
2022-08-21T06:17:54.438Z,2.00
2022-08-21T06:20:21.985Z,1.60
2022-08-21T06:22:48.766Z,1.80
2022-08-21T06:25:15.643Z,2.03
2022-08-21T06:27:42.420Z,1.70
2022-08-21T06:30:10.138Z,1.63
2022-08-21T06:32:37.387Z,1.85
2022-08-21T06:35:05.202Z,2.20
2022-08-21T06:37:32.357Z,2.25
2022-08-21T06:39:59.292Z,2.25
2022-08-21T06:42:28.774Z,2.17
2022-08-21T06:44:57.464Z,1.95
2022-08-21T06:47:24.248Z,1.90
2022-08-21T06:49:51.000Z,2.10
2022-08-21T06:52:17.813Z,1.63
2022-08-21T06:54:44.630Z,1.33
2022-08-21T06:57:11.418Z,1.67
2022-08-21T06:59:38.227Z,1.80
2022-08-21T07:02:05.132Z,1.90
2022-08-21T07:04:31.926Z,2.75
2022-08-21T07:06:59.374Z,2.75
2022-08-21T07:09:26.367Z,2.80
2022-08-21T07:11:55.925Z,2.70
2022-08-21T07:14:23.257Z,2.65
2022-08-21T07:16:51.673Z,2.95
2022-08-21T07:19:19.124Z,2.90
2022-08-21T07:21:46.154Z,2.45
2022-08-21T07:24:13.063Z,2.00
2022-08-21T07:26:39.997Z,2.70
2022-08-21T07:29:06.895Z,2.75
2022-08-21T07:31:33.922Z,2.95
2022-08-21T07:34:00.688Z,3.67
2022-08-21T07:36:27.467Z,4.13
2022-08-21T07:38:54.214Z,3.97
2022-08-21T07:41:25.330Z,3.70
2022-08-21T07:43:52.725Z,4.22
2022-08-21T07:46:20.570Z,4.25
2022-08-21T07:48:47.867Z,3.70
2022-08-21T07:51:17.503Z,3.03
2022-08-21T07:53:52.036Z,4.15
2022-08-21T07:56:19.294Z,4.93
2022-08-21T07:58:46.865Z,5.72
2022-08-21T08:01:13.801Z,5.57
2022-08-21T08:03:41.123Z,5.50
2022-08-21T08:06:12.986Z,5.30
2022-08-21T08:08:41.610Z,5.05
2022-08-21T08:11:11.846Z,5.97
2022-08-21T08:13:44.527Z,4.53
2022-08-21T08:16:11.564Z,4.40
2022-08-21T08:18:38.570Z,3.80
2022-08-21T08:21:06.405Z,3.88
2022-08-21T08:23:33.417Z,3.70
2022-08-21T08:26:00.563Z,3.72
2022-08-21T08:28:28.148Z,3.95
2022-08-21T08:30:54.979Z,3.13
2022-08-21T08:33:22.175Z,3.13
2022-08-21T08:35:51.319Z,3.00
2022-08-21T08:38:24.558Z,2.50
2022-08-21T08:41:18.226Z,2.50
2022-08-21T08:43:52.654Z,3.00
2022-08-21T08:46:26.930Z,2.20
2022-08-21T08:49:16.619Z,2.20
2022-08-21T08:51:53.012Z,2.80
2022-08-21T08:54:39.578Z,2.00
2022-08-21T08:57:16.601Z,3.00
2022-08-21T08:59:47.867Z,2.67
2022-08-21T09:02:16.611Z,2.75
2022-08-21T09:04:46.074Z,2.67
2022-08-21T09:07:36.128Z,2.80
2022-08-21T09:10:12.835Z,2.60
2022-08-21T09:13:02.948Z,2.28
2022-08-21T09:15:50.876Z,2.88
2022-08-21T09:18:45.402Z,2.50
2022-08-21T09:21:29.250Z,2.40
2022-08-21T09:24:41.158Z,2.25
2022-08-21T09:27:14.758Z,1.60
2022-08-21T09:29:46.959Z,2.00
2022-08-21T09:32:20.536Z,2.33
2022-08-21T09:34:59.261Z,2.08
2022-08-21T09:37:28.287Z,2.25
2022-08-21T09:39:55.558Z,1.95
2022-08-21T09:42:25.498Z,1.83
2022-08-21T09:45:23.739Z,2.15
2022-08-21T09:47:50.485Z,1.70
2022-08-21T09:50:26.555Z,2.08
2022-08-21T09:52:59.704Z,1.65
2022-08-21T09:56:11.161Z,1.50
2022-08-21T09:58:40.043Z,2.10
2022-08-21T10:01:13.386Z,1.73
2022-08-21T10:03:40.118Z,1.90
2022-08-21T10:06:10.633Z,1.50
2022-08-21T10:08:42.214Z,1.80
2022-08-21T10:11:12.698Z,1.58
2022-08-21T10:13:55.457Z,1.95
2022-08-21T10:16:31.724Z,1.88
2022-08-21T10:19:10.703Z,1.60
2022-08-21T10:21:50.231Z,2.03
2022-08-21T10:24:30.885Z,2.00
2022-08-21T10:27:16.635Z,1.53
2022-08-21T10:29:55.798Z,1.80
2022-08-21T10:32:53.698Z,1.70
2022-08-21T10:35:23.166Z,1.20
2022-08-21T10:38:48.839Z,1.58
2022-08-21T10:41:29.504Z,1.10
2022-08-21T10:44:14.139Z,0.98
2022-08-21T10:47:11.581Z,1.17
2022-08-21T10:49:53.843Z,1.10
2022-08-21T10:52:32.834Z,1.05
2022-08-21T10:57:58.962Z,0.70
2022-08-21T11:00:54.567Z,0.80
2022-08-21T11:03:25.175Z,0.90
2022-08-21T11:05:55.395Z,1.10
2022-08-21T11:08:38.764Z,1.08
2022-08-21T11:11:35.798Z,1.10
2022-08-21T11:14:14.676Z,0.95
2022-08-21T11:16:57.937Z,0.80
2022-08-21T11:20:03.425Z,0.70
2022-08-21T11:22:51.324Z,0.90
2022-08-21T11:25:33.321Z,0.73
2022-08-21T11:28:14.733Z,1.00
2022-08-21T11:31:20.878Z,0.95
2022-08-21T11:34:12.379Z,0.90
2022-08-21T11:36:46.575Z,1.00
2022-08-21T11:39:46.623Z,0.80
2022-08-21T11:42:31.191Z,1.00
2022-08-21T11:45:19.844Z,0.90
2022-08-21T11:48:13.040Z,0.95
2022-08-21T11:50:42.409Z,0.93
2022-08-21T11:53:15.489Z,0.88
2022-08-21T11:55:57.943Z,0.90
2022-08-21T11:58:44.448Z,1.17
2022-08-21T12:01:17.665Z,0.70
2022-08-21T12:03:57.885Z,0.77
2022-08-21T12:06:43.118Z,0.80
2022-08-21T12:09:32.702Z,1.10
2022-08-21T12:12:08.544Z,0.52
2022-08-21T12:15:16.148Z,0.95
2022-08-21T12:17:59.412Z,0.88
2022-08-21T12:20:50.947Z,1.02
2022-08-21T12:23:28.907Z,1.10
2022-08-21T12:26:04.085Z,0.90
2022-08-21T12:28:32.383Z,1.00
2022-08-21T12:30:59.389Z,1.00
2022-08-21T12:33:26.190Z,1.10
2022-08-21T12:36:07.747Z,0.95
2022-08-21T12:39:08.536Z,1.00
2022-08-21T12:41:45.544Z,1.05
2022-08-21T12:44:17.295Z,1.02
2022-08-21T12:46:51.701Z,0.90
2022-08-21T12:49:33.041Z,0.90
2022-08-21T12:52:11.860Z,0.70
2022-08-21T12:54:42.250Z,1.00
2022-08-21T12:57:17.811Z,0.93
2022-08-21T12:59:44.715Z,0.90
2022-08-21T13:02:26.207Z,0.98
2022-08-21T13:04:56.159Z,0.73
2022-08-21T13:07:34.055Z,0.80
2022-08-21T13:10:34.292Z,1.00
2022-08-21T13:13:12.744Z,0.85
2022-08-21T13:15:42.189Z,1.10
2022-08-21T13:18:29.701Z,0.70
2022-08-21T13:21:13.803Z,0.88
2022-08-21T13:23:40.928Z,0.93
2022-08-21T13:26:20.397Z,1.00
2022-08-21T13:28:48.731Z,0.80
2022-08-21T13:31:25.683Z,0.80
2022-08-21T13:33:54.583Z,0.90
2022-08-21T13:36:33.175Z,0.80
2022-08-21T13:39:00.546Z,0.90
2022-08-21T13:41:34.935Z,1.00
2022-08-21T13:44:18.487Z,0.95
2022-08-21T13:46:48.841Z,0.90
2022-08-21T13:49:20.069Z,0.80
2022-08-21T13:51:47.739Z,0.80
2022-08-21T13:54:22.604Z,1.10
2022-08-21T13:56:49.595Z,0.88
2022-08-21T13:59:32.173Z,0.93
2022-08-21T14:02:09.876Z,0.80
2022-08-21T14:04:58.659Z,1.00
2022-08-21T14:07:40.263Z,1.08
2022-08-21T14:10:23.208Z,1.00
2022-08-21T14:12:57.123Z,1.00
2022-08-21T14:15:29.443Z,1.00
2022-08-21T14:18:15.933Z,1.10
2022-08-21T14:20:43.467Z,0.80
2022-08-21T14:23:10.490Z,1.08
2022-08-21T14:25:44.795Z,1.02
2022-08-21T14:28:29.552Z,0.93
2022-08-21T14:30:57.560Z,1.08
2022-08-21T14:33:31.799Z,0.70
2022-08-21T14:35:59.438Z,1.08
2022-08-21T14:38:29.163Z,1.13
2022-08-21T14:40:59.735Z,0.70
2022-08-21T14:43:28.492Z,1.00
2022-08-21T14:45:56.244Z,1.20
2022-08-21T14:48:23.185Z,0.95
2022-08-21T14:50:49.977Z,1.00
2022-08-21T14:53:17.263Z,1.10
2022-08-21T14:56:02.570Z,0.90
2022-08-21T14:58:29.752Z,0.85
2022-08-21T15:00:58.903Z,1.10
2022-08-21T15:03:26.786Z,1.10
2022-08-21T15:05:53.539Z,0.90
2022-08-21T15:08:20.319Z,1.00
2022-08-21T15:11:10.689Z,1.13
2022-08-21T15:13:34.752Z,1.00
2022-08-21T15:16:01.625Z,1.00
2022-08-21T15:18:30.644Z,1.20
2022-08-21T15:20:58.405Z,1.10
2022-08-21T15:23:25.258Z,1.10
2022-08-21T15:25:53.499Z,0.90
2022-08-21T15:28:21.291Z,0.93
2022-08-21T15:30:48.936Z,0.82
2022-08-21T15:33:15.881Z,1.00
2022-08-21T15:35:42.770Z,0.90
2022-08-21T15:38:11.166Z,1.20
2022-08-21T15:40:39.738Z,1.10
2022-08-21T15:43:32.606Z,1.05
2022-08-21T15:46:00.590Z,1.20
2022-08-21T15:48:27.960Z,1.10
2022-08-21T15:50:54.827Z,1.10
2022-08-21T15:53:21.601Z,0.90
2022-08-21T15:55:48.396Z,1.38
2022-08-21T15:58:16.780Z,1.10
2022-08-21T16:00:45.644Z,0.80
2022-08-21T16:03:17.609Z,1.05
2022-08-21T16:05:45.888Z,0.90
2022-08-21T16:08:12.911Z,1.00
2022-08-21T16:10:40.567Z,1.02
2022-08-21T16:13:15.718Z,0.80
2022-08-21T16:15:42.637Z,0.95
2022-08-21T16:18:10.904Z,1.17
2022-08-21T16:20:37.799Z,1.00
2022-08-21T16:23:04.729Z,1.02
2022-08-21T16:25:34.008Z,0.90
2022-08-21T16:28:02.710Z,0.90
2022-08-21T16:30:30.058Z,1.10
2022-08-21T16:32:57.427Z,1.10
2022-08-21T16:35:25.288Z,0.90
2022-08-21T16:37:53.293Z,1.02
2022-08-21T16:40:23.254Z,1.23
2022-08-21T16:42:50.619Z,1.02
2022-08-21T16:45:20.217Z,1.02
2022-08-21T16:47:47.101Z,1.00
2022-08-21T16:50:17.328Z,1.00
2022-08-21T16:52:44.190Z,1.25
2022-08-21T16:55:11.045Z,1.27
2022-08-21T16:57:38.492Z,0.90
2022-08-21T17:00:10.245Z,0.98
2022-08-21T17:02:41.086Z,1.17
2022-08-21T17:05:13.979Z,0.90
2022-08-21T17:07:41.779Z,1.15
2022-08-21T17:10:10.739Z,0.80
2022-08-21T17:12:37.620Z,1.17
2022-08-21T17:15:16.942Z,1.05
2022-08-21T17:17:48.597Z,1.00
2022-08-21T17:20:15.672Z,1.40
2022-08-21T17:22:42.755Z,1.05
2022-08-21T17:25:10.531Z,1.27
2022-08-21T17:27:37.678Z,1.17
2022-08-21T17:30:06.438Z,1.20
2022-08-21T17:32:33.385Z,1.27
2022-08-21T17:35:00.092Z,0.90
2022-08-21T17:37:29.314Z,0.90
2022-08-21T17:39:56.845Z,1.05
2022-08-21T17:42:25.185Z,1.10
2022-08-21T17:44:52.535Z,1.27
2022-08-21T17:47:19.455Z,1.10
2022-08-21T17:49:46.346Z,1.20
2022-08-21T17:52:13.121Z,1.40
2022-08-21T17:54:41.143Z,1.10
2022-08-21T17:57:13.205Z,1.10
2022-08-21T17:59:40.306Z,1.00
2022-08-21T18:02:09.890Z,0.93
2022-08-21T18:04:46.443Z,1.27
2022-08-21T18:07:25.275Z,1.30
2022-08-21T18:10:01.071Z,1.02
2022-08-21T18:12:28.062Z,1.20
2022-08-21T18:14:54.859Z,1.20
2022-08-21T18:17:24.443Z,2.10
2022-08-21T18:19:51.178Z,1.00
2022-08-21T18:22:17.994Z,0.90
2022-08-21T18:24:45.687Z,1.23
2022-08-21T18:27:15.140Z,1.17
2022-08-21T18:29:43.741Z,1.20
2022-08-21T18:32:31.235Z,1.23
2022-08-21T18:35:03.740Z,1.38
2022-08-21T18:37:31.370Z,0.93
2022-08-21T18:39:58.956Z,1.10
2022-08-21T18:42:28.611Z,1.52
2022-08-21T18:45:01.704Z,1.55
2022-08-21T18:47:36.989Z,1.23
2022-08-21T18:50:10.704Z,1.48
2022-08-21T18:52:41.766Z,1.40
2022-08-21T18:55:21.042Z,1.40
2022-08-21T18:57:48.123Z,1.50
2022-08-21T19:00:21.576Z,1.20
2022-08-21T19:05:18.036Z,1.30
2022-08-21T19:07:45.424Z,1.10
2022-08-21T19:10:31.131Z,1.23
2022-08-21T19:12:59.675Z,1.15
2022-08-21T19:15:27.530Z,1.30
2022-08-21T19:17:55.825Z,1.23
2022-08-21T19:20:36.339Z,1.52
2022-08-21T19:23:06.528Z,1.48
2022-08-21T19:25:34.889Z,1.20
2022-08-21T19:31:10.128Z,1.10
2022-08-21T19:33:41.143Z,1.52
2022-08-21T19:36:11.791Z,1.55
2022-08-21T19:38:39.453Z,1.77
2022-08-21T19:41:09.429Z,2.30
2022-08-21T19:43:45.165Z,1.92
2022-08-21T19:46:15.664Z,1.88
2022-08-21T19:48:46.667Z,1.30
2022-08-21T19:51:13.683Z,1.50
2022-08-21T19:53:40.759Z,1.17
2022-08-21T19:56:12.055Z,1.70
2022-08-21T19:58:41.735Z,1.38
2022-08-21T20:01:11.615Z,1.58
2022-08-21T20:03:44.984Z,1.80
2022-08-21T20:06:22.067Z,1.77
2022-08-21T20:08:51.558Z,2.15
2022-08-21T20:11:27.474Z,2.00
2022-08-21T20:13:55.053Z,1.98
2022-08-21T20:16:21.894Z,2.10
2022-08-21T20:18:49.013Z,2.03
2022-08-21T20:21:16.182Z,2.28
2022-08-21T20:23:48.746Z,1.80
2022-08-21T20:26:16.894Z,1.77
2022-08-21T20:28:44.526Z,1.77
2022-08-21T20:31:11.381Z,1.95
2022-08-21T20:33:42.288Z,2.47
2022-08-21T20:36:10.143Z,1.70
2022-08-21T20:38:37.347Z,1.95
2022-08-21T20:41:10.014Z,2.13
2022-08-21T20:43:49.534Z,2.17
2022-08-21T20:46:21.151Z,2.05
2022-08-21T20:48:49.999Z,1.73
2022-08-21T20:51:23.673Z,1.73
2022-08-21T20:54:14.626Z,1.52
2022-08-21T20:56:59.794Z,1.80
2022-08-21T20:59:38.223Z,1.70
2022-08-21T21:02:24.907Z,1.60
2022-08-21T21:05:05.401Z,2.00
2022-08-21T21:07:56.018Z,1.90
2022-08-21T21:10:30.372Z,1.92
2022-08-21T21:13:03.625Z,1.80
2022-08-21T21:15:33.238Z,1.70
2022-08-21T21:18:16.683Z,2.00
2022-08-21T21:20:54.906Z,1.65
2022-08-21T21:23:29.723Z,1.63
2022-08-21T21:29:21.152Z,1.60
2022-08-21T21:31:49.347Z,2.00
2022-08-21T21:34:17.227Z,1.83
2022-08-21T21:36:56.493Z,1.85
2022-08-21T21:39:43.078Z,1.80
2022-08-21T21:42:34.751Z,1.92
2022-08-21T21:45:10.614Z,1.77
2022-08-21T21:47:56.999Z,1.90
2022-08-21T21:51:00.915Z,1.90
2022-08-21T21:53:46.750Z,1.90
2022-08-21T21:57:00.675Z,2.10
2022-08-21T22:00:00.637Z,1.90
2022-08-21T22:02:54.990Z,1.50
2022-08-21T22:08:19.359Z,1.98
2022-08-21T22:11:08.684Z,1.83
2022-08-21T22:13:56.115Z,1.60
2022-08-21T22:16:23.448Z,1.98
2022-08-21T22:18:59.921Z,2.00
2022-08-21T22:21:35.516Z,1.73
2022-08-21T22:24:16.264Z,1.83
2022-08-21T22:26:49.417Z,1.90
2022-08-21T22:29:20.015Z,2.08
2022-08-21T22:32:08.153Z,2.03
2022-08-21T22:34:35.031Z,2.38
2022-08-21T22:37:05.399Z,2.15
2022-08-21T22:39:46.069Z,2.10
2022-08-21T22:42:24.964Z,1.90
2022-08-21T22:44:56.318Z,2.13
2022-08-21T22:47:33.732Z,2.03
2022-08-21T22:50:05.004Z,1.83
2022-08-21T22:52:57.181Z,1.90
2022-08-21T22:55:25.854Z,2.22
2022-08-21T22:58:11.450Z,2.00
